Time;durP1;ratioP1;P1;durP2;ratioP2;P2;SDS_P1;SDS_P2;PMS_P1;PMS_P2;Temp;Humidity;BMP_temperature;BMP_pressure;BME280_temperature;BME280_humidity;BME280_pressure;Samples;Min_cycle;Max_cycle;Signal;HPM_P1;HPM_P2
2023/05/30 00:00:26;;;;;;;;;;;10.20;99.90;;;;;;8275676;28;19910;-78
2023/05/30 00:04:27;;;;;;;;;;;10.40;99.90;;;;;;8286827;28;19920;-78
2023/05/30 00:08:27;;;;;;;;;;;10.50;99.90;;;;;;8280439;28;19914;-78
2023/05/30 00:12:28;;;;;;;;;;;10.30;99.90;;;;;;8281500;28;19913;-78
2023/05/30 00:16:29;;;;;;;;;;;10.30;99.90;;;;;;8275692;28;19949;-78
2023/05/30 00:20:30;;;;;;;;;;;10.10;99.90;;;;;;8257387;28;19920;-78
2023/05/30 00:24:32;;;;;;;;;;;10.10;99.90;;;;;;8287853;28;19924;-78
2023/05/30 00:28:32;;;;;;;;;;;10.10;99.90;;;;;;8284792;28;19967;-78
2023/05/30 00:32:33;;;;;;;;;;;10.10;99.90;;;;;;8284435;28;19925;-79
2023/05/30 00:36:35;;;;;;;;;;;10.10;99.90;;;;;;8278667;28;19910;-78
2023/05/30 00:40:35;;;;;;;;;;;9.90;99.90;;;;;;8272069;28;20001;-78
2023/05/30 00:44:36;;;;;;;;;;;10.00;99.90;;;;;;8274539;28;19921;-77
2023/05/30 00:48:37;;;;;;;;;;;10.00;99.90;;;;;;8271889;28;20020;-78
2023/05/30 00:52:37;;;;;;;;;;;9.90;99.90;;;;;;8334844;28;19999;-77
2023/05/30 00:56:38;;;;;;;;;;;9.90;99.90;;;;;;8328114;28;19913;-78
2023/05/30 01:00:39;;;;;;;;;;;10.20;99.90;;;;;;8336658;28;19920;-78
2023/05/30 01:04:40;;;;;;;;;;;10.20;99.90;;;;;;8357234;28;19909;-78
2023/05/30 01:08:40;;;;;;;;;;;10.20;99.90;;;;;;8318802;28;19923;-78
2023/05/30 01:13:00;;;;;;;;;;;10.40;99.90;;;;;;8323135;28;19966;-79
2023/05/30 01:17:07;;;;;;;;;;;10.30;99.90;;;;;;8331149;28;19959;-78
2023/05/30 01:21:10;;;;;;;;;;;10.50;99.90;;;;;;8342266;28;20369;-78
2023/05/30 01:25:20;;;;;;;;;;;10.70;99.90;;;;;;8334935;28;20388;-79
2023/05/30 01:29:23;;;;;;;;;;;10.90;99.90;;;;;;8348553;28;20004;-78
2023/05/30 01:33:26;;;;;;;;;;;10.90;99.90;;;;;;8328666;28;19921;-78
2023/05/30 01:37:26;;;;;;;;;;;11.10;99.90;;;;;;8349169;28;19917;-78
2023/05/30 01:41:33;;;;;;;;;;;11.20;99.90;;;;;;8353340;28;19923;-78
2023/05/30 01:45:34;;;;;;;;;;;11.10;99.90;;;;;;8325562;28;20229;-78
2023/05/30 01:49:37;;;;;;;;;;;10.90;99.90;;;;;;8331285;28;20004;-79
2023/05/30 01:53:42;;;;;;;;;;;10.90;99.90;;;;;;8311072;28;20000;-79
2023/05/30 01:57:46;;;;;;;;;;;10.70;99.90;;;;;;8324731;28;20027;-78
2023/05/30 02:01:47;;;;;;;;;;;10.70;99.90;;;;;;8342009;28;20004;-78
2023/05/30 02:05:48;;;;;;;;;;;10.80;99.90;;;;;;8336355;28;19966;-79
2023/05/30 02:09:48;;;;;;;;;;;10.90;99.90;;;;;;8338105;28;19913;-78
2023/05/30 02:13:48;;;;;;;;;;;11.10;99.90;;;;;;8334397;28;19913;-78
2023/05/30 02:17:49;;;;;;;;;;;11.10;99.90;;;;;;8337071;28;19948;-76
2023/05/30 02:21:50;;;;;;;;;;;11.30;99.90;;;;;;8333852;28;19916;-78
2023/05/30 02:25:50;;;;;;;;;;;11.30;99.90;;;;;;8333481;28;19913;-77
2023/05/30 02:29:51;;;;;;;;;;;11.50;99.90;;;;;;8333229;28;20158;-77
2023/05/30 02:33:51;;;;;;;;;;;11.50;99.90;;;;;;8334213;28;19919;-77
2023/05/30 02:37:52;;;;;;;;;;;11.60;99.90;;;;;;8324289;28;20008;-78
2023/05/30 02:41:52;;;;;;;;;;;11.80;99.90;;;;;;8319258;28;19909;-78
2023/05/30 02:45:53;;;;;;;;;;;11.80;99.90;;;;;;8351412;28;19975;-78
2023/05/30 02:49:53;;;;;;;;;;;11.70;99.90;;;;;;8353985;28;19932;-77
2023/05/30 02:53:53;;;;;;;;;;;11.70;99.90;;;;;;8336579;28;19913;-78
2023/05/30 02:57:54;;;;;;;;;;;11.70;99.90;;;;;;8337432;28;19968;-78
2023/05/30 03:01:55;;;;;;;;;;;11.60;99.90;;;;;;8324809;28;19917;-78
2023/05/30 03:05:57;;;;;;;;;;;11.60;99.90;;;;;;8348346;28;19912;-79
2023/05/30 03:09:57;;;;;;;;;;;11.50;99.90;;;;;;8330721;28;19991;-78
2023/05/30 03:13:58;;;;;;;;;;;11.40;99.90;;;;;;8343591;28;20289;-78
2023/05/30 03:17:58;;;;;;;;;;;11.20;99.90;;;;;;8348366;28;19923;-78
2023/05/30 03:21:59;;;;;;;;;;;11.00;99.90;;;;;;8350335;28;19913;-77
2023/05/30 03:25:59;;;;;;;;;;;11.00;99.90;;;;;;8334126;28;19940;-78
2023/05/30 03:30:03;;;;;;;;;;;10.80;99.90;;;;;;8351991;28;19909;-77
2023/05/30 03:34:04;;;;;;;;;;;10.60;99.90;;;;;;8333077;28;19920;-78
2023/05/30 03:38:05;;;;;;;;;;;10.40;99.90;;;;;;8309774;28;19971;-78
2023/05/30 03:42:06;;;;;;;;;;;10.30;99.90;;;;;;8315594;28;19928;-79
2023/05/30 03:46:06;;;;;;;;;;;10.30;99.90;;;;;;8336534;28;19971;-78
2023/05/30 03:50:07;;;;;;;;;;;10.20;99.90;;;;;;8332226;28;19917;-78
2023/05/30 03:54:07;;;;;;;;;;;10.20;99.90;;;;;;8325707;28;20285;-76
2023/05/30 03:58:08;;;;;;;;;;;10.30;99.90;;;;;;8338340;28;19913;-78
2023/05/30 04:02:08;;;;;;;;;;;10.70;99.90;;;;;;8337423;28;19916;-77
2023/05/30 04:06:10;;;;;;;;;;;10.70;99.90;;;;;;8315604;28;19920;-78
2023/05/30 04:10:10;;;;;;;;;;;10.90;99.90;;;;;;8352821;28;20012;-78
2023/05/30 04:14:11;;;;;;;;;;;11.20;99.90;;;;;;8328411;28;19913;-79
2023/05/30 04:18:11;;;;;;;;;;;11.50;99.90;;;;;;8337541;28;19960;-78
2023/05/30 04:22:12;;;;;;;;;;;11.90;99.90;;;;;;8351789;28;20381;-79
2023/05/30 04:26:12;;;;;;;;;;;12.30;99.90;;;;;;8343734;28;20011;-79
2023/05/30 04:30:13;;;;;;;;;;;12.60;99.90;;;;;;8322216;28;19924;-78
2023/05/30 04:34:15;;;;;;;;;;;12.90;99.90;;;;;;8338864;28;20326;-78
2023/05/30 04:38:20;;;;;;;;;;;13.30;99.90;;;;;;8334852;28;20022;-78
2023/05/30 04:42:20;;;;;;;;;;;13.60;99.90;;;;;;8319261;28;20292;-79
2023/05/30 04:46:23;;;;;;;;;;;14.20;99.90;;;;;;8316578;28;19919;-79
2023/05/30 04:50:24;;;;;;;;;;;14.70;99.90;;;;;;8335976;28;19924;-78
2023/05/30 04:54:27;;;;;;;;;;;14.80;99.90;;;;;;8332493;28;20297;-79
2023/05/30 04:58:27;;;;;;;;;;;15.30;99.90;;;;;;8336948;28;19917;-79
2023/05/30 05:02:28;;;;;;;;;;;15.90;99.90;;;;;;8337137;28;19921;-78
2023/05/30 05:06:28;;;;;;;;;;;16.30;99.90;;;;;;8313774;28;19916;-81
2023/05/30 05:10:29;;;;;;;;;;;16.40;99.90;;;;;;8321651;28;19921;-80
2023/05/30 05:14:29;;;;;;;;;;;16.50;99.90;;;;;;8324062;28;19913;-80
2023/05/30 05:18:30;;;;;;;;;;;16.30;99.90;;;;;;8304461;28;20427;-84
2023/05/30 05:22:31;;;;;;;;;;;16.60;99.90;;;;;;8342234;28;19915;-84
2023/05/30 05:26:31;;;;;;;;;;;16.80;99.90;;;;;;8319737;28;19981;-84
2023/05/30 05:30:32;;;;;;;;;;;17.10;99.90;;;;;;8332858;28;19909;-84
2023/05/30 05:34:32;;;;;;;;;;;16.80;99.90;;;;;;8341317;28;20397;-83
2023/05/30 05:38:33;;;;;;;;;;;17.20;99.90;;;;;;8336416;28;19917;-83
2023/05/30 05:42:33;;;;;;;;;;;17.40;99.90;;;;;;8316939;28;21417;-82
2023/05/30 05:46:34;;;;;;;;;;;17.50;99.90;;;;;;8314668;28;19920;-84
2023/05/30 05:50:34;;;;;;;;;;;17.60;99.90;;;;;;8318526;28;19917;-84
2023/05/30 05:54:35;;;;;;;;;;;17.30;99.90;;;;;;8331052;28;19974;-83
2023/05/30 05:58:35;;;;;;;;;;;17.10;99.90;;;;;;8320000;28;19913;-82
2023/05/30 06:02:36;;;;;;;;;;;16.80;99.90;;;;;;8333296;28;19909;-83
2023/05/30 06:06:36;;;;;;;;;;;16.50;99.90;;;;;;8321292;28;19914;-83
2023/05/30 06:10:37;;;;;;;;;;;16.40;99.90;;;;;;8320964;28;19920;-82
2023/05/30 06:14:37;;;;;;;;;;;16.30;99.90;;;;;;8350156;28;19913;-82
2023/05/30 06:18:38;;;;;;;;;;;16.40;99.90;;;;;;8323768;28;19932;-80
2023/05/30 06:22:38;;;;;;;;;;;17.00;99.90;;;;;;8337793;28;19954;-80
2023/05/30 06:26:39;;;;;;;;;;;16.70;99.90;;;;;;8334692;28;20361;-80
2023/05/30 06:30:39;;;;;;;;;;;17.00;99.90;;;;;;8331810;28;20431;-80
2023/05/30 06:34:40;;;;;;;;;;;17.70;99.90;;;;;;8334568;28;20407;-80
2023/05/30 06:38:40;;;;;;;;;;;17.90;99.90;;;;;;8322181;28;19921;-80
2023/05/30 06:42:40;;;;;;;;;;;18.40;99.90;;;;;;8340212;28;19963;-81
2023/05/30 06:46:41;;;;;;;;;;;18.60;99.90;;;;;;8326462;28;19919;-80
2023/05/30 06:50:42;;;;;;;;;;;18.30;99.90;;;;;;8304411;28;19948;-79
2023/05/30 06:54:42;;;;;;;;;;;17.90;99.90;;;;;;8312716;28;19971;-78
2023/05/30 06:58:42;;;;;;;;;;;18.10;99.90;;;;;;8310030;28;19924;-79
2023/05/30 07:02:44;;;;;;;;;;;18.40;99.90;;;;;;8344303;28;19923;-81
2023/05/30 07:06:44;;;;;;;;;;;19.10;99.90;;;;;;8307894;28;19921;-79
2023/05/30 07:10:45;;;;;;;;;;;19.10;99.90;;;;;;8330221;28;20426;-78
2023/05/30 07:14:46;;;;;;;;;;;19.10;99.90;;;;;;8303688;28;19917;-80
2023/05/30 07:18:47;;;;;;;;;;;19.00;99.90;;;;;;8341611;28;19928;-80
2023/05/30 07:22:47;;;;;;;;;;;19.00;99.90;;;;;;8309726;28;19920;-80
2023/05/30 07:26:49;;;;;;;;;;;19.40;99.90;;;;;;8319915;28;19915;-84
2023/05/30 07:30:50;;;;;;;;;;;19.40;99.90;;;;;;8310748;28;20350;-84
2023/05/30 07:34:50;;;;;;;;;;;19.50;99.90;;;;;;8325396;28;20285;-84
2023/05/30 07:38:51;;;;;;;;;;;19.70;99.90;;;;;;8317307;28;19976;-84
2023/05/30 07:42:53;;;;;;;;;;;19.50;99.90;;;;;;8320069;28;20769;-83
2023/05/30 07:46:53;;;;;;;;;;;19.80;99.90;;;;;;8318732;28;20395;-84
2023/05/30 07:50:54;;;;;;;;;;;20.10;99.90;;;;;;8332810;28;19917;-85
2023/05/30 07:54:54;;;;;;;;;;;20.10;99.90;;;;;;8318083;28;19909;-85
2023/05/30 07:58:58;;;;;;;;;;;20.00;99.90;;;;;;8311279;28;20039;-84
2023/05/30 08:02:58;;;;;;;;;;;20.50;99.90;;;;;;8308498;28;19913;-86
2023/05/30 08:06:59;;;;;;;;;;;20.80;99.90;;;;;;8313502;28;20021;-85
2023/05/30 08:11:00;;;;;;;;;;;20.90;99.90;;;;;;8327347;28;19908;-84
2023/05/30 08:15:00;;;;;;;;;;;20.90;99.90;;;;;;8312626;28;19929;-85
2023/05/30 08:19:01;;;;;;;;;;;20.50;99.90;;;;;;8320551;28;20018;-84
2023/05/30 08:23:01;;;;;;;;;;;20.30;99.90;;;;;;8334763;28;20640;-84
2023/05/30 08:27:02;;;;;;;;;;;20.70;99.90;;;;;;8306954;28;20275;-85
2023/05/30 08:31:05;;;;;;;;;;;20.60;99.90;;;;;;8311925;28;20382;-85
2023/05/30 08:35:06;;;;;;;;;;;21.00;99.90;;;;;;8318476;28;19916;-85
2023/05/30 08:39:06;;;;;;;;;;;21.00;99.90;;;;;;8300982;28;19918;-84
2023/05/30 08:43:07;;;;;;;;;;;21.10;99.90;;;;;;8331429;28;19909;-84
2023/05/30 08:47:12;;;;;;;;;;;21.40;99.90;;;;;;8313123;28;20067;-84
2023/05/30 08:51:13;;;;;;;;;;;21.60;99.90;;;;;;8333012;28;19917;-84
2023/05/30 08:55:14;;;;;;;;;;;21.50;99.90;;;;;;8355641;28;20055;-86
2023/05/30 08:59:16;;;;;;;;;;;21.90;99.90;;;;;;8332700;28;19927;-83
2023/05/30 09:03:17;;;;;;;;;;;21.70;99.90;;;;;;8347951;28;20409;-84
2023/05/30 09:07:18;;;;;;;;;;;21.90;99.90;;;;;;8306850;28;20289;-83
2023/05/30 09:11:21;;;;;;;;;;;21.80;99.90;;;;;;8311527;28;19921;-84
2023/05/30 09:15:21;;;;;;;;;;;22.10;99.90;;;;;;8311414;28;19921;-83
2023/05/30 09:19:22;;;;;;;;;;;22.10;99.90;;;;;;8308435;28;20279;-83
2023/05/30 09:23:23;;;;;;;;;;;21.80;99.90;;;;;;8330661;28;19963;-83
2023/05/30 09:27:24;;;;;;;;;;;21.90;99.90;;;;;;8321634;28;20007;-83
2023/05/30 09:31:24;;;;;;;;;;;21.80;99.90;;;;;;8313806;28;19924;-84
2023/05/30 09:35:25;;;;;;;;;;;22.10;99.90;;;;;;8312738;28;19916;-84
2023/05/30 09:39:27;;;;;;;;;;;22.50;99.90;;;;;;8325504;28;19921;-86
2023/05/30 09:43:32;;;;;;;;;;;22.70;99.90;;;;;;8311147;28;20384;-86
2023/05/30 09:47:45;;;;;;;;;;;22.40;99.90;;;;;;8349651;28;20091;-86
2023/05/30 09:51:48;;;;;;;;;;;22.50;99.90;;;;;;8350236;28;20385;-84
2023/05/30 09:55:49;;;;;;;;;;;22.30;99.90;;;;;;8329764;28;19974;-83
2023/05/30 09:59:50;;;;;;;;;;;22.20;99.90;;;;;;8350828;28;20270;-84
2023/05/30 10:03:50;;;;;;;;;;;22.50;99.90;;;;;;8330975;28;19965;-84
2023/05/30 10:07:58;;;;;;;;;;;22.60;99.90;;;;;;8330682;28;19909;-84
2023/05/30 10:12:03;;;;;;;;;;;22.80;99.90;;;;;;8315371;28;19917;-85
2023/05/30 10:16:05;;;;;;;;;;;23.10;99.90;;;;;;8310708;28;19913;-84
2023/05/30 10:20:07;;;;;;;;;;;23.20;98.90;;;;;;8332708;28;19921;-85
2023/05/30 10:24:09;;;;;;;;;;;23.40;99.90;;;;;;8332927;28;19943;-84
2023/05/30 10:28:15;;;;;;;;;;;23.30;99.90;;;;;;8323202;28;19909;-86
2023/05/30 10:32:18;;;;;;;;;;;22.80;99.90;;;;;;8327622;28;19909;-78
2023/05/30 10:36:20;;;;;;;;;;;22.80;99.90;;;;;;8330932;28;19914;-79
2023/05/30 10:40:20;;;;;;;;;;;22.90;99.90;;;;;;8327370;28;20005;-78
2023/05/30 10:44:42;;;;;;;;;;;23.30;99.80;;;;;;8319936;28;19913;-78
2023/05/30 10:48:52;;;;;;;;;;;23.80;99.70;;;;;;8312070;28;19968;-79
2023/05/30 10:52:54;;;;;;;;;;;24.10;98.00;;;;;;8312901;28;19917;-79
2023/05/30 10:56:55;;;;;;;;;;;24.00;96.80;;;;;;8339609;28;19912;-79
2023/05/30 11:01:01;;;;;;;;;;;24.00;98.70;;;;;;8314060;28;19960;-79
2023/05/30 11:05:06;;;;;;;;;;;24.50;97.70;;;;;;8321746;28;19966;-78
2023/05/30 11:09:11;;;;;;;;;;;24.30;97.50;;;;;;8315253;28;20128;-79
2023/05/30 11:13:14;;;;;;;;;;;24.00;98.60;;;;;;8332577;28;20443;-80
2023/05/30 11:17:16;;;;;;;;;;;24.30;96.30;;;;;;8328739;28;19913;-79
2023/05/30 11:21:36;;;;;;;;;;;25.00;93.60;;;;;;8311334;28;19913;-79
2023/05/30 11:25:37;;;;;;;;;;;24.60;94.80;;;;;;8300686;28;20016;-80
2023/05/30 11:29:43;;;;;;;;;;;25.30;94.70;;;;;;8299228;28;19917;-78
2023/05/30 11:33:45;;;;;;;;;;;25.80;94.20;;;;;;8307131;28;19940;-79
2023/05/30 11:37:46;;;;;;;;;;;25.30;92.60;;;;;;8308805;28;19917;-78
2023/05/30 11:41:46;;;;;;;;;;;24.90;93.10;;;;;;8311509;28;19908;-80
2023/05/30 11:45:52;;;;;;;;;;;25.40;92.50;;;;;;8316155;28;19955;-78
2023/05/30 11:49:56;;;;;;;;;;;25.40;92.80;;;;;;8314966;28;19917;-78
2023/05/30 11:53:56;;;;;;;;;;;25.30;90.10;;;;;;8305776;28;19967;-77
2023/05/30 11:57:57;;;;;;;;;;;25.20;91.90;;;;;;8341392;28;19966;-80
2023/05/30 12:01:58;;;;;;;;;;;24.00;94.80;;;;;;8329649;28;19999;-80
2023/05/30 12:06:09;;;;;;;;;;;25.40;93.40;;;;;;8323704;28;19909;-79
2023/05/30 12:10:10;;;;;;;;;;;25.00;91.40;;;;;;8301339;28;20332;-78
2023/05/30 12:14:10;;;;;;;;;;;22.80;92.30;;;;;;8313271;28;19909;-79
2023/05/30 12:18:11;;;;;;;;;;;22.70;93.90;;;;;;8333494;28;19917;-80
2023/05/30 12:22:12;;;;;;;;;;;25.20;91.10;;;;;;8328079;28;20382;-77
2023/05/30 12:26:19;;;;;;;;;;;27.10;80.50;;;;;;8317172;28;20015;-80
2023/05/30 12:30:20;;;;;;;;;;;27.20;83.90;;;;;;8315506;28;19916;-79
2023/05/30 12:34:21;;;;;;;;;;;26.20;78.90;;;;;;8330795;28;19963;-79
2023/05/30 12:38:21;;;;;;;;;;;25.50;82.80;;;;;;8329663;28;19913;-79
2023/05/30 12:42:29;;;;;;;;;;;26.80;79.40;;;;;;8317501;28;20301;-78
2023/05/30 12:46:31;;;;;;;;;;;25.90;79.50;;;;;;8326003;28;19909;-80
2023/05/30 12:50:31;;;;;;;;;;;24.80;84.10;;;;;;8352334;28;19959;-79
2023/05/30 12:54:32;;;;;;;;;;;26.60;75.50;;;;;;8341424;28;19917;-77
2023/05/30 12:58:33;;;;;;;;;;;28.20;73.70;;;;;;8324698;28;19927;-79
2023/05/30 13:02:35;;;;;;;;;;;28.90;73.30;;;;;;8329383;28;19913;-80
2023/05/30 13:06:35;;;;;;;;;;;28.20;69.30;;;;;;8309769;28;19913;-80
2023/05/30 13:10:36;;;;;;;;;;;25.60;73.50;;;;;;8308427;28;20293;-78
2023/05/30 13:14:37;;;;;;;;;;;24.60;76.80;;;;;;8320160;28;20490;-80
2023/05/30 13:18:37;;;;;;;;;;;25.20;74.20;;;;;;8316551;28;19921;-78
2023/05/30 13:22:38;;;;;;;;;;;24.10;77.30;;;;;;8305187;28;19916;-77
2023/05/30 13:26:38;;;;;;;;;;;23.20;81.80;;;;;;8319515;28;19988;-80
2023/05/30 13:30:38;;;;;;;;;;;25.40;75.10;;;;;;8331133;28;19963;-79
2023/05/30 13:34:39;;;;;;;;;;;26.70;67.30;;;;;;8319489;28;19915;-80
2023/05/30 13:38:42;;;;;;;;;;;28.40;67.80;;;;;;8332260;28;19913;-80
2023/05/30 13:42:43;;;;;;;;;;;29.90;60.20;;;;;;8328498;28;19917;-78
2023/05/30 13:46:43;;;;;;;;;;;30.90;58.00;;;;;;8314333;28;20348;-78
2023/05/30 13:50:44;;;;;;;;;;;30.70;57.50;;;;;;8323447;28;20039;-78
2023/05/30 13:54:45;;;;;;;;;;;30.20;56.40;;;;;;8300240;28;19921;-79
2023/05/30 13:58:45;;;;;;;;;;;28.40;59.30;;;;;;8338991;28;20244;-77
2023/05/30 14:02:46;;;;;;;;;;;25.30;67.20;;;;;;8302108;28;19913;-78
2023/05/30 14:06:50;;;;;;;;;;;23.50;71.40;;;;;;8323991;28;19975;-78
2023/05/30 14:10:52;;;;;;;;;;;22.60;76.30;;;;;;8324210;28;19936;-79
2023/05/30 14:14:52;;;;;;;;;;;25.10;67.70;;;;;;8315448;28;19917;-79
2023/05/30 14:18:53;;;;;;;;;;;27.30;67.30;;;;;;8315366;28;19943;-77
2023/05/30 14:22:53;;;;;;;;;;;28.30;65.50;;;;;;8321634;28;20031;-79
2023/05/30 14:26:54;;;;;;;;;;;28.50;58.70;;;;;;8323524;28;20377;-79
2023/05/30 14:30:54;;;;;;;;;;;29.70;59.90;;;;;;8328326;28;19971;-78
2023/05/30 14:34:54;;;;;;;;;;;29.10;56.50;;;;;;8346071;28;19916;-78
2023/05/30 14:38:55;;;;;;;;;;;29.50;59.20;;;;;;8321458;28;19913;-79
2023/05/30 14:42:57;;;;;;;;;;;30.80;56.20;;;;;;8321036;28;19913;-78
2023/05/30 14:47:00;;;;;;;;;;;30.80;55.70;;;;;;8316857;28;19983;-79
2023/05/30 14:51:00;;;;;;;;;;;27.50;57.90;;;;;;8327107;28;19917;-78
2023/05/30 14:55:01;;;;;;;;;;;24.50;65.90;;;;;;8329458;28;19913;-80
2023/05/30 14:59:02;;;;;;;;;;;23.30;69.30;;;;;;8348118;28;19919;-79
2023/05/30 15:03:02;;;;;;;;;;;23.10;73.60;;;;;;8331763;28;19909;-79
2023/05/30 15:07:03;;;;;;;;;;;23.60;70.60;;;;;;8327584;28;19908;-78
2023/05/30 15:11:03;;;;;;;;;;;23.40;71.30;;;;;;8338550;28;19924;-78
2023/05/30 15:15:04;;;;;;;;;;;22.60;73.80;;;;;;8324396;28;19913;-78
2023/05/30 15:19:04;;;;;;;;;;;22.40;73.50;;;;;;8307633;28;19921;-79
2023/05/30 15:23:05;;;;;;;;;;;22.30;77.00;;;;;;8309812;28;19956;-79
2023/05/30 15:27:05;;;;;;;;;;;22.20;76.40;;;;;;8304188;28;19913;-80
2023/05/30 15:31:06;;;;;;;;;;;22.20;77.10;;;;;;8305795;28;19932;-79
2023/05/30 15:35:06;;;;;;;;;;;22.60;76.40;;;;;;8305026;28;20040;-79
2023/05/30 15:39:07;;;;;;;;;;;23.40;73.00;;;;;;8334908;28;19924;-77
2023/05/30 15:43:07;;;;;;;;;;;22.70;75.10;;;;;;8308752;28;19913;-78
2023/05/30 15:47:08;;;;;;;;;;;22.60;76.00;;;;;;8304049;28;19924;-80
2023/05/30 15:51:08;;;;;;;;;;;22.30;78.30;;;;;;8313268;28;19917;-78
2023/05/30 15:55:09;;;;;;;;;;;22.30;77.90;;;;;;8331337;28;20456;-77
2023/05/30 15:59:09;;;;;;;;;;;22.00;77.80;;;;;;8305296;28;20385;-78
2023/05/30 16:03:10;;;;;;;;;;;21.80;79.80;;;;;;8320233;28;19928;-77
2023/05/30 16:07:11;;;;;;;;;;;21.90;79.60;;;;;;8309548;28;20492;-78
2023/05/30 16:11:11;;;;;;;;;;;22.00;81.00;;;;;;8327822;28;19924;-78
2023/05/30 16:15:12;;;;;;;;;;;22.40;79.50;;;;;;8332303;28;19921;-77
2023/05/30 16:19:12;;;;;;;;;;;22.60;78.20;;;;;;8306515;28;21269;-77
2023/05/30 16:23:12;;;;;;;;;;;22.80;78.50;;;;;;8314304;28;19920;-77
2023/05/30 16:27:17;;;;;;;;;;;23.20;78.90;;;;;;8319475;28;19928;-78
2023/05/30 16:31:20;;;;;;;;;;;22.90;78.00;;;;;;8298539;28;19969;-77
2023/05/30 16:35:23;;;;;;;;;;;22.60;78.50;;;;;;8301982;28;19917;-80
2023/05/30 16:39:25;;;;;;;;;;;22.10;79.00;;;;;;8306886;28;19994;-79
2023/05/30 16:43:25;;;;;;;;;;;21.90;80.60;;;;;;8315586;28;19976;-80
2023/05/30 16:47:26;;;;;;;;;;;21.80;82.60;;;;;;8329144;28;19917;-79
2023/05/30 16:51:27;;;;;;;;;;;21.90;82.20;;;;;;8303511;28;20332;-78
2023/05/30 16:55:27;;;;;;;;;;;21.60;82.20;;;;;;8312207;28;20051;-77
2023/05/30 16:59:27;;;;;;;;;;;21.40;83.20;;;;;;8312786;28;19917;-79
2023/05/30 17:03:28;;;;;;;;;;;21.10;85.20;;;;;;8314853;28;19917;-79
2023/05/30 17:07:29;;;;;;;;;;;21.00;83.60;;;;;;8313924;28;20285;-79
2023/05/30 17:11:29;;;;;;;;;;;20.80;85.50;;;;;;8341038;28;19913;-79
2023/05/30 17:15:30;;;;;;;;;;;20.80;85.90;;;;;;8331062;28;19913;-78
2023/05/30 17:19:30;;;;;;;;;;;20.80;86.60;;;;;;8306244;28;19943;-77
2023/05/30 17:23:31;;;;;;;;;;;20.70;84.90;;;;;;8320668;28;19913;-79
2023/05/30 17:27:32;;;;;;;;;;;20.70;84.40;;;;;;8335785;28;19913;-78
2023/05/30 17:31:32;;;;;;;;;;;20.60;86.20;;;;;;8313580;28;19928;-79
2023/05/30 17:35:33;;;;;;;;;;;20.50;87.40;;;;;;8326175;28;19913;-79
2023/05/30 17:39:33;;;;;;;;;;;20.30;87.10;;;;;;8313787;28;19924;-78
2023/05/30 17:43:34;;;;;;;;;;;20.30;86.50;;;;;;8311764;28;20010;-78
2023/05/30 17:47:35;;;;;;;;;;;20.20;86.50;;;;;;8325334;28;19913;-79
2023/05/30 17:51:36;;;;;;;;;;;20.10;88.90;;;;;;8309096;28;19921;-79
2023/05/30 17:55:36;;;;;;;;;;;20.10;88.60;;;;;;8311799;28;19967;-80
2023/05/30 17:59:37;;;;;;;;;;;20.00;88.30;;;;;;8302661;28;19917;-78
2023/05/30 18:03:37;;;;;;;;;;;19.80;86.30;;;;;;8322216;28;19913;-80
2023/05/30 18:07:38;;;;;;;;;;;19.80;88.40;;;;;;8308436;28;19919;-79
2023/05/30 18:11:38;;;;;;;;;;;19.70;88.70;;;;;;8322651;28;19913;-78
2023/05/30 18:15:38;;;;;;;;;;;19.50;89.00;;;;;;8303590;28;19924;-77
2023/05/30 18:19:39;;;;;;;;;;;19.40;88.30;;;;;;8322464;28;19921;-78
2023/05/30 18:23:39;;;;;;;;;;;19.30;89.80;;;;;;8301194;28;19927;-78
2023/05/30 18:27:40;;;;;;;;;;;19.10;89.70;;;;;;8298503;28;19917;-78
2023/05/30 18:31:40;;;;;;;;;;;18.90;90.10;;;;;;8296112;28;20309;-79
2023/05/30 18:35:41;;;;;;;;;;;18.70;90.00;;;;;;8320942;28;19917;-77
2023/05/30 18:39:41;;;;;;;;;;;18.60;90.60;;;;;;8296264;28;20003;-78
2023/05/30 18:43:42;;;;;;;;;;;18.40;91.50;;;;;;8319603;28;20451;-78
2023/05/30 18:47:42;;;;;;;;;;;18.30;91.60;;;;;;8332748;28;20024;-78
2023/05/30 18:51:43;;;;;;;;;;;18.10;92.40;;;;;;8316539;28;19920;-79
2023/05/30 18:55:43;;;;;;;;;;;17.80;93.60;;;;;;8313180;28;19956;-78
2023/05/30 18:59:44;;;;;;;;;;;17.50;94.00;;;;;;8304176;28;19925;-79
2023/05/30 19:03:44;;;;;;;;;;;17.20;95.10;;;;;;8325495;28;19913;-79
2023/05/30 19:07:45;;;;;;;;;;;16.90;95.70;;;;;;8308038;28;20523;-78
2023/05/30 19:11:45;;;;;;;;;;;16.50;97.40;;;;;;8318046;28;20401;-79
2023/05/30 19:15:46;;;;;;;;;;;16.10;99.90;;;;;;8318660;28;20270;-78
2023/05/30 19:19:47;;;;;;;;;;;15.80;99.90;;;;;;8298644;28;20386;-79
2023/05/30 19:23:47;;;;;;;;;;;15.50;99.90;;;;;;8299575;28;19924;-80
2023/05/30 19:27:52;;;;;;;;;;;15.50;99.90;;;;;;8320523;28;19956;-78
2023/05/30 19:31:52;;;;;;;;;;;15.50;99.90;;;;;;8324968;28;20015;-83
2023/05/30 19:35:53;;;;;;;;;;;15.60;99.90;;;;;;8331618;28;20054;-83
2023/05/30 19:39:53;;;;;;;;;;;15.60;99.90;;;;;;8327046;28;19916;-83
2023/05/30 19:43:54;;;;;;;;;;;15.50;99.90;;;;;;8326869;28;19928;-83
2023/05/30 19:47:54;;;;;;;;;;;15.50;99.90;;;;;;8312434;28;19921;-82
2023/05/30 19:51:55;;;;;;;;;;;15.60;99.90;;;;;;8327861;28;20292;-78
2023/05/30 19:55:55;;;;;;;;;;;15.50;99.90;;;;;;8302783;28;19970;-79
2023/05/30 19:59:56;;;;;;;;;;;15.40;99.90;;;;;;8323433;28;19921;-80
2023/05/30 20:03:56;;;;;;;;;;;15.20;99.90;;;;;;8301069;28;20352;-79
2023/05/30 20:08:02;;;;;;;;;;;14.90;99.90;;;;;;8301714;28;19913;-79
2023/05/30 20:12:02;;;;;;;;;;;14.60;99.90;;;;;;8307264;28;20370;-80
2023/05/30 20:16:03;;;;;;;;;;;14.40;99.90;;;;;;8335898;28;19917;-79
2023/05/30 20:20:04;;;;;;;;;;;14.20;99.90;;;;;;8332442;28;20322;-78
2023/05/30 20:24:04;;;;;;;;;;;14.00;99.90;;;;;;8327293;28;19948;-79
2023/05/30 20:28:05;;;;;;;;;;;13.80;99.90;;;;;;8301899;28;19917;-79
2023/05/30 20:32:06;;;;;;;;;;;13.70;99.90;;;;;;8331191;28;19963;-78
2023/05/30 20:36:06;;;;;;;;;;;13.60;99.90;;;;;;8311832;28;20318;-79
2023/05/30 20:40:07;;;;;;;;;;;13.40;99.90;;;;;;8326279;28;20738;-78
2023/05/30 20:44:07;;;;;;;;;;;13.30;99.90;;;;;;8321248;28;19909;-79
2023/05/30 20:48:08;;;;;;;;;;;13.10;99.90;;;;;;8327767;28;20130;-78
2023/05/30 20:52:09;;;;;;;;;;;13.00;99.90;;;;;;8348471;28;20332;-78
2023/05/30 20:56:09;;;;;;;;;;;13.00;99.90;;;;;;8336829;28;20460;-79
2023/05/30 21:00:10;;;;;;;;;;;13.00;99.90;;;;;;8311054;28;19917;-79
2023/05/30 21:04:11;;;;;;;;;;;12.90;99.90;;;;;;8327548;28;19909;-79
2023/05/30 21:08:12;;;;;;;;;;;13.00;99.90;;;;;;8320918;28;19944;-79
2023/05/30 21:12:12;;;;;;;;;;;12.90;99.90;;;;;;8330753;28;19920;-79
2023/05/30 21:16:13;;;;;;;;;;;12.90;99.90;;;;;;8327424;28;19963;-79
2023/05/30 21:20:13;;;;;;;;;;;12.90;99.90;;;;;;8332653;28;20047;-78
2023/05/30 21:24:14;;;;;;;;;;;13.00;99.90;;;;;;8331949;28;20185;-79
2023/05/30 21:28:14;;;;;;;;;;;13.00;99.90;;;;;;8329283;28;20405;-78
2023/05/30 21:32:15;;;;;;;;;;;13.00;99.90;;;;;;8356539;28;19913;-79
2023/05/30 21:36:15;;;;;;;;;;;12.90;99.90;;;;;;8324978;28;20492;-79
2023/05/30 21:40:16;;;;;;;;;;;12.80;99.90;;;;;;8325969;28;19923;-78
2023/05/30 21:44:16;;;;;;;;;;;12.80;99.90;;;;;;8323900;28;19913;-79
2023/05/30 21:48:17;;;;;;;;;;;12.70;99.90;;;;;;8315527;28;19913;-78
2023/05/30 21:52:19;;;;;;;;;;;12.70;99.90;;;;;;8301053;28;19931;-79
2023/05/30 21:56:20;;;;;;;;;;;12.60;99.90;;;;;;8311247;28;19999;-79
2023/05/30 22:00:20;;;;;;;;;;;12.60;99.90;;;;;;8329970;28;19917;-79
2023/05/30 22:04:21;;;;;;;;;;;12.50;99.90;;;;;;8319765;28;19959;-79
2023/05/30 22:08:21;;;;;;;;;;;12.60;99.90;;;;;;8340651;28;19916;-78
2023/05/30 22:12:22;;;;;;;;;;;12.80;99.90;;;;;;8329003;28;20297;-78
2023/05/30 22:16:22;;;;;;;;;;;12.80;99.90;;;;;;8323819;28;20000;-79
2023/05/30 22:20:23;;;;;;;;;;;12.90;99.90;;;;;;8335014;28;19957;-79
2023/05/30 22:24:23;;;;;;;;;;;12.80;99.90;;;;;;8329398;28;19917;-79
2023/05/30 22:28:24;;;;;;;;;;;12.70;99.90;;;;;;8336321;28;20329;-79
2023/05/30 22:32:25;;;;;;;;;;;12.60;99.90;;;;;;8341035;28;19944;-79
2023/05/30 22:36:25;;;;;;;;;;;12.50;99.90;;;;;;8348344;28;19956;-77
2023/05/30 22:40:26;;;;;;;;;;;12.30;99.90;;;;;;8305714;28;19913;-77
2023/05/30 22:44:26;;;;;;;;;;;12.30;99.90;;;;;;8337800;28;19934;-78
2023/05/30 22:48:27;;;;;;;;;;;12.20;99.90;;;;;;8327045;28;19963;-77
2023/05/30 22:52:27;;;;;;;;;;;12.20;99.90;;;;;;8326692;28;20008;-79
2023/05/30 22:56:28;;;;;;;;;;;12.20;99.90;;;;;;8351238;28;19912;-79
2023/05/30 23:00:28;;;;;;;;;;;12.10;99.90;;;;;;8325420;28;19913;-79
2023/05/30 23:04:29;;;;;;;;;;;11.90;99.90;;;;;;8318766;28;19909;-78
2023/05/30 23:08:29;;;;;;;;;;;11.80;99.90;;;;;;8349405;28;19915;-78
2023/05/30 23:12:30;;;;;;;;;;;11.60;99.90;;;;;;8320962;28;20704;-79
2023/05/30 23:16:30;;;;;;;;;;;11.50;99.90;;;;;;8329865;28;19928;-79
2023/05/30 23:20:30;;;;;;;;;;;11.50;99.90;;;;;;8319475;28;19922;-78